createdAt,value
2018-10-18T00:00:49.250Z,98.22
2018-10-18T00:03:16.521Z,98.33
2018-10-18T00:05:43.657Z,97.78
2018-10-18T00:08:10.844Z,96.38
2018-10-18T00:10:38.103Z,95.76
2018-10-18T00:13:05.276Z,95.18
2018-10-18T00:15:32.466Z,94.33
2018-10-18T00:17:59.682Z,96.50
2018-10-18T00:20:26.853Z,96.85
2018-10-18T00:22:54.009Z,97.17
2018-10-18T00:25:21.397Z,95.99
2018-10-18T00:27:48.571Z,95.56
2018-10-18T00:30:15.964Z,95.14
2018-10-18T00:32:43.950Z,94.95
2018-10-18T00:35:11.488Z,94.53
2018-10-18T00:37:39.052Z,94.56
2018-10-18T00:40:06.954Z,93.10
2018-10-18T00:42:34.140Z,93.88
2018-10-18T00:45:01.302Z,94.85
2018-10-18T00:47:28.495Z,95.93
2018-10-18T00:49:55.702Z,96.85
2018-10-18T00:52:23.890Z,96.89
2018-10-18T00:54:51.164Z,96.17
2018-10-18T00:57:18.356Z,95.81
2018-10-18T00:59:45.520Z,95.47
2018-10-18T01:02:12.891Z,94.44
2018-10-18T01:04:40.018Z,94.50
2018-10-18T01:07:07.190Z,94.93
2018-10-18T01:09:34.474Z,95.74
2018-10-18T01:12:01.675Z,97.24
2018-10-18T01:14:28.839Z,97.44
2018-10-18T01:17:01.891Z,96.25
2018-10-18T01:19:29.402Z,95.58
2018-10-18T01:21:56.552Z,96.99
2018-10-18T01:24:23.817Z,98.15
2018-10-18T01:26:51.019Z,97.55
2018-10-18T01:29:18.187Z,96.81
2018-10-18T01:31:45.514Z,97.07
2018-10-18T01:34:13.006Z,96.58
2018-10-18T01:36:40.167Z,96.08
2018-10-18T01:39:07.635Z,96.95
2018-10-18T01:41:34.805Z,97.39
2018-10-18T01:44:02.021Z,97.60
2018-10-18T01:46:29.226Z,96.89
2018-10-18T01:48:56.381Z,97.88
2018-10-18T01:51:23.529Z,97.69
2018-10-18T01:53:50.737Z,97.48
2018-10-18T01:56:17.902Z,96.61
2018-10-18T01:58:45.042Z,96.61
2018-10-18T02:01:12.834Z,96.44
2018-10-18T02:03:39.985Z,95.54
2018-10-18T02:06:07.368Z,95.47
2018-10-18T02:08:39.938Z,96.04
2018-10-18T02:11:07.442Z,95.37
2018-10-18T02:13:34.675Z,95.33
2018-10-18T02:16:01.869Z,94.93
2018-10-18T02:18:29.025Z,94.95
2018-10-18T02:20:56.255Z,95.12
2018-10-18T02:23:23.557Z,96.43
2018-10-18T02:25:50.745Z,97.32
2018-10-18T02:28:17.901Z,97.36
2018-10-18T02:30:45.106Z,96.64
2018-10-18T02:33:12.272Z,97.27
2018-10-18T02:35:39.437Z,96.55
2018-10-18T02:38:06.821Z,96.37
2018-10-18T02:40:34.541Z,96.87
2018-10-18T02:43:01.727Z,97.54
2018-10-18T02:45:29.316Z,97.99
2018-10-18T02:47:56.479Z,98.81
2018-10-18T02:50:23.675Z,98.42
2018-10-18T02:52:51.056Z,98.37
2018-10-18T02:55:18.205Z,97.69
2018-10-18T02:57:45.383Z,96.09
2018-10-18T03:00:12.661Z,97.00
2018-10-18T03:02:39.815Z,97.86
2018-10-18T03:05:07.133Z,98.33
2018-10-18T03:07:34.350Z,98.96
2018-10-18T03:10:01.578Z,98.82
2018-10-18T03:12:28.787Z,98.87
2018-10-18T03:14:56.084Z,98.10
2018-10-18T03:17:23.261Z,97.58
2018-10-18T03:19:50.871Z,96.30
2018-10-18T03:22:18.120Z,96.47
2018-10-18T03:24:45.301Z,97.28
2018-10-18T03:27:12.465Z,98.01
2018-10-18T03:29:39.669Z,97.09
2018-10-18T03:32:06.914Z,96.26
2018-10-18T03:34:34.085Z,96.53
2018-10-18T03:37:01.382Z,96.85
2018-10-18T03:39:28.581Z,97.33
2018-10-18T03:41:55.834Z,98.17
2018-10-18T03:44:23.854Z,98.44
2018-10-18T03:46:51.025Z,97.98
2018-10-18T03:49:18.205Z,97.38
2018-10-18T03:51:45.505Z,96.93
2018-10-18T03:54:12.737Z,97.07
2018-10-18T03:56:39.842Z,96.97
2018-10-18T03:59:07.470Z,96.72
2018-10-18T04:01:34.682Z,97.18
2018-10-18T04:04:01.865Z,97.09
2018-10-18T04:06:29.064Z,97.61
2018-10-18T04:08:56.216Z,97.19
2018-10-18T04:11:23.419Z,96.68
2018-10-18T04:13:50.666Z,96.26
2018-10-18T04:16:17.898Z,97.81
2018-10-18T04:18:45.046Z,97.75
2018-10-18T04:21:12.374Z,96.66
2018-10-18T04:23:39.562Z,96.25
2018-10-18T04:26:06.726Z,96.52
2018-10-18T04:28:33.943Z,96.16
2018-10-18T04:31:02.315Z,96.46
2018-10-18T04:33:29.541Z,97.61
2018-10-18T04:35:56.832Z,96.91
2018-10-18T04:38:24.013Z,97.40
2018-10-18T04:40:51.239Z,98.21
2018-10-18T04:43:18.532Z,98.43
2018-10-18T04:45:45.701Z,98.76
2018-10-18T04:48:13.293Z,98.77
2018-10-18T04:50:40.665Z,97.75
2018-10-18T04:53:08.009Z,98.34
2018-10-18T04:55:35.198Z,97.94
2018-10-18T04:58:02.434Z,97.29
2018-10-18T05:00:29.648Z,96.42
2018-10-18T05:02:56.953Z,96.80
2018-10-18T05:05:36.623Z,97.50
2018-10-18T05:08:03.902Z,96.70
2018-10-18T05:10:31.089Z,97.09
2018-10-18T05:12:58.366Z,97.96
2018-10-18T05:15:25.616Z,98.26
2018-10-18T05:17:52.836Z,98.61
2018-10-18T05:20:20.126Z,97.92
2018-10-18T05:22:47.314Z,97.75
2018-10-18T05:25:14.544Z,97.96
2018-10-18T05:27:41.796Z,97.42
2018-10-18T05:30:09.000Z,97.69
2018-10-18T05:32:36.127Z,98.24
2018-10-18T05:35:03.280Z,97.98
2018-10-18T05:37:30.447Z,97.20
2018-10-18T05:39:57.545Z,98.22
2018-10-18T05:42:24.679Z,97.92
2018-10-18T05:44:51.831Z,98.58
2018-10-18T05:47:19.298Z,98.42
2018-10-18T05:49:46.421Z,98.50
2018-10-18T05:52:13.508Z,98.49
2018-10-18T05:54:40.613Z,99.17
2018-10-18T05:57:07.783Z,98.60
2018-10-18T05:59:34.877Z,98.46
2018-10-18T06:02:01.972Z,98.58
2018-10-18T06:04:29.168Z,98.45
2018-10-18T06:06:56.656Z,97.80
2018-10-18T06:09:28.096Z,97.22
2018-10-18T06:11:55.262Z,97.53
2018-10-18T06:14:22.462Z,98.05
2018-10-18T06:16:49.572Z,98.90
2018-10-18T06:19:16.834Z,99.13
2018-10-18T06:21:44.371Z,99.51
2018-10-18T06:24:11.484Z,99.29
2018-10-18T06:26:38.651Z,99.72
2018-10-18T06:29:05.802Z,99.31
2018-10-18T06:31:32.905Z,98.68
2018-10-18T06:34:00.034Z,98.85
2018-10-18T06:36:27.143Z,99.55
2018-10-18T06:38:54.247Z,100.00
2018-10-18T06:41:21.444Z,99.30
2018-10-18T06:43:48.544Z,98.36
2018-10-18T06:46:15.703Z,97.38
2018-10-18T06:48:42.944Z,97.51
2018-10-18T06:51:10.483Z,97.33
2018-10-18T06:53:37.911Z,97.13
2018-10-18T06:56:05.096Z,99.22
2018-10-18T06:58:32.194Z,99.24
2018-10-18T07:00:59.295Z,100.00
2018-10-18T07:03:26.434Z,99.81
2018-10-18T07:05:53.530Z,99.52
2018-10-18T07:08:20.600Z,100.00
2018-10-18T07:10:47.804Z,100.00
2018-10-18T07:13:14.951Z,98.14
2018-10-18T07:15:42.034Z,99.93
2018-10-18T07:18:09.195Z,100.00
2018-10-18T07:20:36.263Z,100.00
2018-10-18T07:23:03.403Z,100.00
2018-10-18T07:25:30.604Z,100.00
2018-10-18T07:27:57.712Z,99.54
2018-10-18T07:30:24.792Z,94.92
2018-10-18T07:32:51.960Z,92.67
2018-10-18T07:35:19.100Z,91.63
2018-10-18T07:37:46.189Z,91.58
2018-10-18T07:40:14.627Z,89.34
2018-10-18T07:42:41.745Z,88.02
2018-10-18T07:45:09.490Z,88.04
2018-10-18T07:47:36.692Z,89.15
2018-10-18T07:50:04.113Z,89.13
2018-10-18T07:52:31.215Z,90.05
2018-10-18T07:54:58.357Z,90.75
2018-10-18T07:57:25.463Z,89.48
2018-10-18T07:59:52.587Z,88.13
2018-10-18T08:02:19.739Z,87.97
2018-10-18T08:04:46.833Z,88.75
2018-10-18T08:07:14.049Z,89.32
2018-10-18T08:09:41.179Z,88.49
2018-10-18T08:12:08.269Z,87.35
2018-10-18T08:14:35.366Z,87.12
2018-10-18T08:17:02.595Z,85.21
2018-10-18T08:19:29.640Z,85.97
2018-10-18T08:21:56.756Z,85.43
2018-10-18T08:24:24.112Z,86.74
2018-10-18T08:26:51.196Z,86.51
2018-10-18T08:29:18.346Z,86.81
2018-10-18T08:31:45.711Z,85.79
2018-10-18T08:34:12.897Z,85.32
2018-10-18T08:36:40.061Z,86.12
2018-10-18T08:39:08.770Z,85.16
2018-10-18T08:41:35.984Z,84.15
2018-10-18T08:44:03.205Z,83.85
2018-10-18T08:46:30.433Z,82.99
2018-10-18T08:48:57.660Z,83.55
2018-10-18T08:51:24.799Z,83.39
2018-10-18T08:53:51.975Z,83.76
2018-10-18T08:56:19.172Z,82.22
2018-10-18T08:58:46.313Z,82.44
2018-10-18T09:01:13.620Z,82.34
2018-10-18T09:03:40.714Z,80.48
2018-10-18T09:06:07.861Z,79.19
2018-10-18T09:08:35.062Z,80.24
2018-10-18T09:11:02.221Z,79.14
2018-10-18T09:13:29.347Z,78.79
2018-10-18T09:15:56.649Z,77.22
2018-10-18T09:18:23.769Z,76.06
2018-10-18T09:20:50.924Z,73.87
2018-10-18T09:23:18.097Z,73.80
2018-10-18T09:25:45.227Z,71.77
2018-10-18T09:28:12.383Z,71.54
2018-10-18T09:30:39.580Z,69.48
2018-10-18T09:33:06.820Z,69.14
2018-10-18T09:35:33.967Z,68.73
2018-10-18T09:38:01.216Z,69.70
2018-10-18T09:40:28.365Z,66.92
2018-10-18T09:42:58.553Z,65.92
2018-10-18T09:45:26.000Z,66.75
2018-10-18T09:47:53.124Z,65.75
2018-10-18T09:50:20.353Z,65.74
2018-10-18T09:52:47.558Z,62.53
2018-10-18T09:55:14.765Z,63.32
2018-10-18T09:57:41.908Z,63.50
2018-10-18T10:00:14.804Z,62.54
2018-10-18T10:02:47.581Z,61.69
2018-10-18T10:05:14.865Z,60.69
2018-10-18T10:07:42.010Z,61.18
2018-10-18T10:10:09.193Z,61.45
2018-10-18T10:12:36.362Z,60.40
2018-10-18T10:15:04.247Z,59.88
2018-10-18T10:17:31.451Z,59.75
2018-10-18T10:19:58.613Z,59.68
2018-10-18T10:22:25.758Z,58.78
2018-10-18T10:24:52.944Z,58.16
2018-10-18T10:27:20.148Z,57.21
2018-10-18T10:29:47.292Z,57.48
2018-10-18T10:32:14.460Z,56.83
2018-10-18T10:34:41.664Z,57.17
2018-10-18T10:37:08.857Z,57.14
2018-10-18T10:39:36.030Z,58.22
2018-10-18T10:42:03.326Z,59.19
2018-10-18T10:44:30.508Z,59.72
2018-10-18T10:46:57.645Z,60.81
2018-10-18T10:49:24.933Z,62.26
2018-10-18T10:51:52.182Z,61.96
2018-10-18T10:54:19.353Z,60.88
2018-10-18T10:56:46.554Z,60.87
2018-10-18T10:59:15.684Z,62.35
2018-10-18T11:01:42.799Z,61.92
2018-10-18T11:04:10.037Z,62.04
2018-10-18T11:06:37.218Z,61.44
2018-10-18T11:09:06.544Z,61.51
2018-10-18T11:11:33.783Z,61.94
2018-10-18T11:14:00.929Z,61.47
2018-10-18T11:16:28.050Z,62.76
2018-10-18T11:18:55.290Z,63.36
2018-10-18T11:21:22.466Z,63.82
2018-10-18T11:23:49.585Z,64.92
2018-10-18T11:26:16.810Z,64.33
2018-10-18T11:28:43.884Z,65.56
2018-10-18T11:31:11.021Z,65.38
2018-10-18T11:33:38.320Z,64.17
2018-10-18T11:36:05.502Z,64.37
2018-10-18T11:38:33.137Z,65.82
2018-10-18T11:41:00.583Z,65.07
2018-10-18T11:43:27.764Z,66.06
2018-10-18T11:45:55.553Z,66.58
2018-10-18T11:48:22.882Z,67.13
2018-10-18T11:50:50.015Z,67.65
2018-10-18T11:53:17.190Z,68.36
2018-10-18T11:55:44.400Z,69.05
2018-10-18T11:58:12.175Z,69.21
2018-10-18T12:00:39.532Z,68.17
2018-10-18T12:03:06.722Z,68.77
2018-10-18T12:05:33.862Z,69.28
2018-10-18T12:08:01.066Z,68.83
2018-10-18T12:10:28.233Z,68.33
2018-10-18T12:12:55.349Z,68.73
2018-10-18T12:15:22.534Z,68.49
2018-10-18T12:17:49.714Z,68.32
2018-10-18T12:20:17.443Z,69.55
2018-10-18T12:22:44.573Z,70.56
2018-10-18T12:25:12.398Z,71.11
2018-10-18T12:27:39.615Z,71.86
2018-10-18T12:30:07.409Z,72.17
2018-10-18T12:32:34.726Z,72.11
2018-10-18T12:35:01.883Z,73.18
2018-10-18T12:37:29.006Z,73.15
2018-10-18T12:39:56.258Z,73.75
2018-10-18T12:42:23.448Z,74.29
2018-10-18T12:44:50.689Z,75.28
2018-10-18T12:47:17.868Z,76.24
2018-10-18T12:49:44.987Z,76.68
2018-10-18T12:52:13.352Z,77.01
2018-10-18T12:54:40.735Z,77.81
2018-10-18T12:57:09.513Z,78.24
2018-10-18T12:59:36.737Z,79.29
2018-10-18T13:02:04.048Z,79.38
2018-10-18T13:04:31.141Z,78.53
2018-10-18T13:06:58.469Z,77.98
2018-10-18T13:09:26.284Z,78.08
2018-10-18T13:11:53.503Z,77.19
2018-10-18T13:14:20.596Z,77.52
2018-10-18T13:16:47.837Z,77.51
2018-10-18T13:19:15.003Z,77.59
2018-10-18T13:21:42.158Z,77.85
2018-10-18T13:24:09.364Z,78.78
2018-10-18T13:26:36.983Z,77.53
2018-10-18T13:29:04.486Z,78.29
2018-10-18T13:31:31.767Z,77.81
2018-10-18T13:33:58.928Z,77.87
2018-10-18T13:36:26.054Z,78.45
2018-10-18T13:38:53.386Z,79.64
2018-10-18T13:41:20.500Z,79.75
2018-10-18T13:43:47.628Z,81.17
2018-10-18T13:46:14.851Z,81.96
2018-10-18T13:48:42.092Z,82.70
2018-10-18T13:51:09.295Z,82.82
2018-10-18T13:53:39.405Z,82.96
2018-10-18T13:56:06.775Z,82.93
2018-10-18T13:58:33.853Z,83.49
2018-10-18T14:01:01.026Z,84.31
2018-10-18T14:03:28.194Z,84.78
2018-10-18T14:05:55.342Z,84.42
2018-10-18T14:08:22.665Z,85.18
2018-10-18T14:10:49.757Z,85.54
2018-10-18T14:13:16.872Z,85.74
2018-10-18T14:15:44.073Z,86.45
2018-10-18T14:18:11.350Z,87.03
2018-10-18T14:20:38.497Z,87.16
2018-10-18T14:23:05.709Z,86.67
2018-10-18T14:25:32.962Z,86.23
2018-10-18T14:28:00.120Z,86.79
2018-10-18T14:30:28.532Z,86.22
2018-10-18T14:32:55.629Z,87.09
2018-10-18T14:35:22.805Z,87.21
2018-10-18T14:37:49.992Z,86.75
2018-10-18T14:40:17.145Z,86.60
2018-10-18T14:42:44.298Z,87.10
2018-10-18T14:45:11.560Z,87.53
2018-10-18T14:47:38.843Z,88.37
2018-10-18T14:50:07.802Z,87.58
2018-10-18T14:52:35.021Z,87.66
2018-10-18T14:55:02.166Z,88.27
2018-10-18T14:57:29.445Z,88.70
2018-10-18T15:00:03.630Z,88.53
2018-10-18T15:02:30.821Z,88.54
2018-10-18T15:04:58.146Z,88.69
2018-10-18T15:07:25.353Z,89.45
2018-10-18T15:09:52.562Z,88.81
2018-10-18T15:12:19.705Z,89.35
2018-10-18T15:14:46.976Z,89.17
2018-10-18T15:17:14.196Z,89.46
2018-10-18T15:19:41.349Z,89.70
2018-10-18T15:22:08.553Z,90.25
2018-10-18T15:24:35.680Z,89.77
2018-10-18T15:27:02.980Z,90.73
2018-10-18T15:29:30.033Z,90.79
2018-10-18T15:31:57.264Z,90.05
2018-10-18T15:34:24.348Z,90.18
2018-10-18T15:36:51.536Z,90.32
2018-10-18T15:39:18.893Z,91.04
2018-10-18T15:41:45.904Z,90.62
2018-10-18T15:44:13.263Z,90.67
2018-10-18T15:46:40.368Z,90.80
2018-10-18T15:49:07.968Z,91.26
2018-10-18T15:51:35.648Z,91.52
2018-10-18T15:54:02.856Z,91.32
2018-10-18T15:56:30.049Z,91.83
2018-10-18T15:58:57.398Z,92.00
2018-10-18T16:01:24.542Z,91.78
2018-10-18T16:03:51.681Z,92.39
2018-10-18T16:06:18.944Z,92.10
2018-10-18T16:08:46.203Z,91.98
2018-10-18T16:11:13.404Z,92.06
2018-10-18T16:13:40.533Z,91.19
2018-10-18T16:16:07.923Z,91.64
2018-10-18T16:18:35.086Z,91.91
2018-10-18T16:21:02.425Z,91.81
2018-10-18T16:23:29.579Z,92.19
2018-10-18T16:25:56.820Z,92.75
2018-10-18T16:28:23.935Z,92.42
2018-10-18T16:30:51.085Z,92.75
2018-10-18T16:33:18.474Z,92.68
2018-10-18T16:35:45.683Z,92.32
2018-10-18T16:38:12.900Z,92.04
2018-10-18T16:40:40.225Z,91.34
2018-10-18T16:43:07.657Z,91.59
2018-10-18T16:45:34.861Z,92.66
2018-10-18T16:48:02.487Z,93.18
2018-10-18T16:50:29.740Z,93.01
2018-10-18T16:52:56.963Z,92.59
2018-10-18T16:55:24.172Z,93.25
2018-10-18T16:57:51.449Z,93.00
2018-10-18T17:00:19.109Z,93.14
2018-10-18T17:02:46.582Z,93.32
2018-10-18T17:05:13.840Z,92.56
2018-10-18T17:07:40.987Z,92.30
2018-10-18T17:10:08.251Z,92.44
2018-10-18T17:12:35.365Z,92.33
2018-10-18T17:15:02.545Z,92.69
2018-10-18T17:17:30.566Z,92.69
2018-10-18T17:19:57.843Z,94.59
2018-10-18T17:22:24.979Z,95.24
2018-10-18T17:24:52.256Z,96.48
2018-10-18T17:27:20.043Z,97.93
2018-10-18T17:29:47.213Z,98.83
2018-10-18T17:32:15.004Z,99.83
2018-10-18T17:34:42.277Z,100.00
2018-10-18T17:37:09.491Z,100.00
2018-10-18T17:39:36.622Z,100.00
2018-10-18T17:42:04.149Z,100.00
2018-10-18T17:44:31.330Z,100.00
2018-10-18T17:46:58.516Z,100.00
2018-10-18T17:49:25.796Z,100.00
2018-10-18T17:51:53.064Z,100.00
2018-10-18T17:54:20.331Z,100.00
2018-10-18T17:56:47.557Z,100.00
2018-10-18T17:59:14.791Z,100.00
2018-10-18T18:01:42.082Z,100.00
2018-10-18T18:04:09.318Z,100.00
2018-10-18T18:06:36.588Z,100.00
2018-10-18T18:09:04.634Z,100.00
2018-10-18T18:11:31.882Z,100.00
2018-10-18T18:13:59.056Z,100.00
2018-10-18T18:16:26.344Z,100.00
2018-10-18T18:18:53.523Z,100.00
2018-10-18T18:21:20.658Z,100.00
2018-10-18T18:23:47.774Z,100.00
2018-10-18T18:26:15.057Z,100.00
2018-10-18T18:28:42.223Z,100.00
2018-10-18T18:31:09.410Z,100.00
2018-10-18T18:33:36.631Z,100.00
2018-10-18T18:36:04.161Z,100.00
2018-10-18T18:38:31.308Z,100.00
2018-10-18T18:40:58.490Z,100.00
2018-10-18T18:43:25.657Z,100.00
2018-10-18T18:45:53.834Z,100.00
2018-10-18T18:48:21.132Z,100.00
2018-10-18T18:50:48.380Z,100.00
2018-10-18T18:53:15.532Z,98.94
2018-10-18T18:55:42.719Z,98.72
2018-10-18T18:58:09.896Z,99.30
2018-10-18T19:00:37.058Z,97.94
2018-10-18T19:03:04.928Z,96.98
2018-10-18T19:05:31.985Z,96.82
2018-10-18T19:07:59.136Z,97.11
2018-10-18T19:10:26.324Z,96.16
2018-10-18T19:12:53.457Z,96.02
2018-10-18T19:15:20.705Z,96.30
2018-10-18T19:17:47.908Z,96.69
2018-10-18T19:20:15.068Z,96.51
2018-10-18T19:22:42.307Z,95.68
2018-10-18T19:25:09.549Z,95.63
2018-10-18T19:27:37.389Z,96.06
2018-10-18T19:30:06.376Z,95.96
2018-10-18T19:32:33.560Z,94.49
2018-10-18T19:35:01.378Z,95.02
2018-10-18T19:37:28.543Z,95.47
2018-10-18T19:39:55.914Z,94.37
2018-10-18T19:42:24.975Z,93.70
2018-10-18T19:44:52.454Z,93.01
2018-10-18T19:47:19.740Z,93.38
2018-10-18T19:49:46.905Z,92.78
2018-10-18T19:52:14.124Z,93.28
2018-10-18T19:54:42.509Z,92.71
2018-10-18T19:57:09.851Z,92.91
2018-10-18T19:59:37.920Z,92.01
2018-10-18T20:02:05.886Z,90.86
2018-10-18T20:04:34.117Z,91.28
2018-10-18T20:07:01.241Z,90.83
2018-10-18T20:09:28.538Z,90.39
2018-10-18T20:11:58.173Z,89.54
2018-10-18T20:14:26.330Z,89.68
2018-10-18T20:16:53.929Z,89.61
2018-10-18T20:19:21.073Z,89.84
2018-10-18T20:21:48.217Z,88.73
2018-10-18T20:24:15.438Z,88.54
2018-10-18T20:26:42.612Z,87.99
2018-10-18T20:29:09.835Z,87.79
2018-10-18T20:31:37.070Z,88.17
2018-10-18T20:34:04.585Z,88.58
2018-10-18T20:36:31.744Z,88.09
2018-10-18T20:38:59.011Z,88.57
2018-10-18T20:41:26.797Z,87.40
2018-10-18T20:43:54.144Z,87.75
2018-10-18T20:46:21.487Z,87.03
2018-10-18T20:48:48.620Z,86.15
2018-10-18T20:51:17.290Z,86.50
2018-10-18T20:53:44.548Z,85.80
2018-10-18T20:56:11.673Z,86.30
2018-10-18T20:58:39.181Z,86.80
2018-10-18T21:01:06.538Z,86.97
2018-10-18T21:03:33.676Z,85.81
2018-10-18T21:06:01.001Z,86.18
2018-10-18T21:08:28.636Z,85.53
2018-10-18T21:10:56.069Z,85.99
2018-10-18T21:13:23.340Z,84.32
2018-10-18T21:15:50.612Z,84.62
2018-10-18T21:18:17.761Z,84.13
2018-10-18T21:20:44.913Z,84.61
2018-10-18T21:23:12.247Z,84.70
2018-10-18T21:25:39.352Z,84.77
2018-10-18T21:28:06.498Z,83.75
2018-10-18T21:30:33.769Z,83.94
2018-10-18T21:33:00.978Z,83.71
2018-10-18T21:35:28.153Z,83.96
2018-10-18T21:37:55.314Z,83.97
2018-10-18T21:40:22.445Z,84.01
2018-10-18T21:42:49.591Z,83.01
2018-10-18T21:45:17.218Z,83.22
2018-10-18T21:47:44.329Z,83.91
2018-10-18T21:50:11.448Z,83.83
2018-10-18T21:52:38.611Z,81.85
2018-10-18T21:55:06.711Z,82.17
2018-10-18T21:57:33.885Z,82.37
2018-10-18T22:00:01.098Z,82.75
2018-10-18T22:02:28.227Z,84.01
2018-10-18T22:04:55.475Z,83.28
2018-10-18T22:07:22.872Z,80.86
2018-10-18T22:09:50.000Z,80.92
2018-10-18T22:12:17.166Z,79.26
2018-10-18T22:14:44.433Z,80.11
2018-10-18T22:17:11.700Z,79.77
2018-10-18T22:19:38.834Z,79.17
2018-10-18T22:22:06.100Z,79.53
2018-10-18T22:24:33.232Z,78.74
2018-10-18T22:27:00.479Z,79.92
2018-10-18T22:29:27.640Z,77.80
2018-10-18T22:31:54.779Z,78.38
2018-10-18T22:34:21.905Z,76.72
2018-10-18T22:36:49.238Z,78.44
2018-10-18T22:39:17.321Z,78.20
2018-10-18T22:41:44.452Z,77.28
2018-10-18T22:44:11.655Z,75.92
2018-10-18T22:46:38.798Z,76.37
2018-10-18T22:49:05.916Z,75.40
2018-10-18T22:51:33.105Z,75.23
2018-10-18T22:54:00.261Z,74.43
2018-10-18T22:56:27.432Z,73.90
2018-10-18T22:58:54.664Z,72.55
2018-10-18T23:01:21.781Z,71.81
2018-10-18T23:03:48.917Z,70.62
2018-10-18T23:06:16.115Z,70.54
2018-10-18T23:08:43.314Z,69.95
2018-10-18T23:11:10.493Z,70.37
2018-10-18T23:13:37.757Z,70.02
2018-10-18T23:16:04.946Z,69.53
2018-10-18T23:18:32.094Z,69.29
2018-10-18T23:20:59.313Z,69.96
2018-10-18T23:23:26.434Z,69.35
2018-10-18T23:25:53.568Z,69.48
2018-10-18T23:28:20.768Z,70.26
2018-10-18T23:30:47.909Z,69.28
2018-10-18T23:33:15.045Z,69.78
2018-10-18T23:35:42.224Z,70.54
2018-10-18T23:38:09.359Z,70.78
2018-10-18T23:40:36.473Z,71.26
2018-10-18T23:43:03.703Z,71.25
2018-10-18T23:45:30.827Z,71.29
2018-10-18T23:47:57.970Z,72.95
2018-10-18T23:50:25.164Z,72.73
2018-10-18T23:52:52.324Z,71.88
2018-10-18T23:55:19.476Z,72.14
2018-10-18T23:57:46.667Z,71.60
